createdAt,value
2024-01-29T00:05:08.981Z,15.4
2024-01-29T00:11:06.162Z,15.4
2024-01-29T00:17:01.355Z,15.4
2024-01-29T00:22:56.261Z,15.4
2024-01-29T00:28:50.592Z,15.4
2024-01-29T00:34:31.168Z,15.4
2024-01-29T00:40:30.725Z,15.4
2024-01-29T00:46:24.514Z,15.3
2024-01-29T00:52:10.465Z,15.4
2024-01-29T00:58:06.330Z,15.4
2024-01-29T01:04:06.633Z,15.3
2024-01-29T01:10:02.517Z,15.3
2024-01-29T01:15:56.243Z,15.3
2024-01-29T01:21:36.585Z,15.3
2024-01-29T01:27:30.713Z,15.4
2024-01-29T01:33:25.371Z,15.3
2024-01-29T01:39:20.085Z,15.3
2024-01-29T01:45:16.793Z,15.3
2024-01-29T01:51:19.585Z,15.3
2024-01-29T01:57:13.832Z,15.3
2024-01-29T02:03:12.254Z,15.3
2024-01-29T02:09:07.857Z,15.6
2024-01-29T02:15:01.750Z,16.1
2024-01-29T02:20:57.038Z,17.1
2024-01-29T02:26:50.856Z,18.3
2024-01-29T02:32:46.224Z,19.5
2024-01-29T02:38:42.382Z,20.9
2024-01-29T02:44:36.903Z,22.3
2024-01-29T02:50:17.235Z,23.6
2024-01-29T02:56:11.667Z,24.8
2024-01-29T03:02:06.048Z,26.1
2024-01-29T03:08:05.904Z,27.4
2024-01-29T03:13:59.733Z,28.6
2024-01-29T03:19:41.441Z,29.7
2024-01-29T03:25:39.558Z,30.8
2024-01-29T03:31:33.438Z,31.8
2024-01-29T03:37:28.023Z,32.3
2024-01-29T03:43:06.828Z,32.6
2024-01-29T03:49:01.321Z,32.6
2024-01-29T03:54:57.114Z,32.7
2024-01-29T04:00:53.524Z,32.8
2024-01-29T04:06:37.116Z,32.7
2024-01-29T04:12:30.829Z,32.7
2024-01-29T04:18:27.323Z,32.7
2024-01-29T04:24:25.276Z,32.6
2024-01-29T04:30:06.803Z,32.6
2024-01-29T04:36:03.135Z,32.6
2024-01-29T04:41:56.884Z,32.6
2024-01-29T04:47:52.521Z,32.6
2024-01-29T04:53:33.184Z,32.5
2024-01-29T04:59:12.335Z,32.4
2024-01-29T05:04:40.564Z,32.4
2024-01-29T05:10:19.703Z,32.4
2024-01-29T05:15:43.785Z,32.3
2024-01-29T05:21:08.282Z,32.3
2024-01-29T05:27:05.639Z,32.3
2024-01-29T05:32:59.967Z,32.2
2024-01-29T05:38:33.495Z,31.8
2024-01-29T05:44:12.093Z,31.2
2024-01-29T05:49:51.749Z,30.8
2024-01-29T05:55:45.818Z,30.5
2024-01-29T06:01:24.983Z,30.3
2024-01-29T06:07:05.148Z,30.2
2024-01-29T06:12:49.076Z,30.1
2024-01-29T06:18:27.838Z,30
2024-01-29T06:24:48.716Z,29.9
2024-01-29T06:30:30.791Z,29.8
2024-01-29T06:36:28.814Z,29.8
2024-01-29T06:42:22.784Z,29.7
2024-01-29T06:48:19.482Z,29.6
2024-01-29T06:54:14.906Z,29.6
2024-01-29T07:00:08.816Z,29.5
2024-01-29T07:06:07.061Z,29.4
2024-01-29T07:12:04.251Z,29.4
2024-01-29T07:17:58.827Z,29.3
2024-01-29T07:23:54.827Z,29.3
2024-01-29T07:29:35.703Z,29.2
2024-01-29T07:35:31.463Z,29.1
2024-01-29T07:41:28.428Z,29.1
2024-01-29T07:47:23.063Z,29
2024-01-29T07:53:20.077Z,29
2024-01-29T07:59:15.290Z,28.9
2024-01-29T08:05:12.333Z,28.9
2024-01-29T08:11:07.363Z,28.8
2024-01-29T08:17:02.534Z,28.8
2024-01-29T08:23:03.951Z,28.7
2024-01-29T08:28:58.245Z,28.6
2024-01-29T08:34:55.369Z,28.6
2024-01-29T08:40:50.518Z,28.6
2024-01-29T08:46:47.469Z,28.5
2024-01-29T08:52:42.705Z,28.5
2024-01-29T08:58:43.080Z,28.4
2024-01-29T09:04:38.358Z,28.4
2024-01-29T09:10:44.657Z,28.4
2024-01-29T09:16:39.427Z,28.3
2024-01-29T09:22:20.179Z,28.3
2024-01-29T09:28:15.595Z,28.3
2024-01-29T09:34:24.752Z,28.2
2024-01-29T09:40:19.332Z,27.8
2024-01-29T09:46:16.178Z,26
2024-01-29T09:51:43.119Z,25.3
2024-01-29T09:57:40.388Z,24.9
2024-01-29T10:03:37.688Z,24.5
2024-01-29T10:09:18.534Z,24.3
2024-01-29T10:15:12.810Z,25.2
2024-01-29T10:21:08.095Z,28.1
2024-01-29T10:26:47.480Z,30.3
2024-01-29T10:32:12.869Z,31.6
2024-01-29T10:37:23.992Z,32.3
2024-01-29T10:43:25.572Z,33.1
2024-01-29T10:49:05.104Z,33.8
2024-01-29T10:54:46.357Z,34.3
2024-01-29T11:00:26.062Z,34.3
2024-01-29T11:06:17.057Z,34.3
2024-01-29T11:11:57.923Z,34.2
2024-01-29T11:17:38.882Z,34
2024-01-29T11:23:41.744Z,33.9
2024-01-29T11:29:20.622Z,33.8
2024-01-29T11:35:25.386Z,33.8
2024-01-29T11:41:26.341Z,33.7
2024-01-29T11:47:23.556Z,33.6
2024-01-29T11:53:32.684Z,33.6
2024-01-29T11:59:14.939Z,33.5
2024-01-29T12:04:54.817Z,33.4
2024-01-29T12:10:53.766Z,33.4
2024-01-29T12:16:48.148Z,33.3
2024-01-29T12:22:45.353Z,33.3
2024-01-29T12:28:42.145Z,33.2
2024-01-29T12:34:39.648Z,33.1
2024-01-29T12:40:21.699Z,33.1
2024-01-29T12:46:15.728Z,33
2024-01-29T12:52:12.277Z,32.9
2024-01-29T12:57:50.931Z,32.9
2024-01-29T13:03:36.676Z,32.9
2024-01-29T13:09:34.000Z,32.8
2024-01-29T13:15:31.646Z,32.8
2024-01-29T13:21:27.382Z,32.7
2024-01-29T13:27:08.706Z,32.7
2024-01-29T13:33:06.413Z,32.6
2024-01-29T13:38:47.237Z,32.6
2024-01-29T13:44:44.841Z,32.4
2024-01-29T13:50:41.735Z,32.4
2024-01-29T13:56:38.518Z,32.4
2024-01-29T14:02:33.522Z,32.3
2024-01-29T14:08:31.011Z,32.3
2024-01-29T14:14:34.342Z,32.2
2024-01-29T14:20:37.608Z,32.2
2024-01-29T14:26:32.399Z,32.1
2024-01-29T14:32:31.173Z,32.1
2024-01-29T14:38:29.391Z,32
2024-01-29T14:44:25.195Z,32
2024-01-29T14:50:23.290Z,31.9
2024-01-29T14:56:18.949Z,31.9
2024-01-29T15:02:16.214Z,31.8
2024-01-29T15:08:14.645Z,31.8
2024-01-29T15:14:09.717Z,31.8
2024-01-29T15:20:07.474Z,31.7
2024-01-29T15:26:05.206Z,31.6
2024-01-29T15:32:00.184Z,31.6
2024-01-29T15:37:55.320Z,31.6
2024-01-29T15:43:51.765Z,31.5
2024-01-29T15:49:52.452Z,31.4
2024-01-29T15:55:49.590Z,31.4
2024-01-29T16:01:44.790Z,31.3
2024-01-29T16:07:39.569Z,31.3
2024-01-29T16:13:33.960Z,31.2
2024-01-29T16:19:33.032Z,31.1
2024-01-29T16:25:27.751Z,31.1
2024-01-29T16:31:22.363Z,30.7
2024-01-29T16:37:19.576Z,30.4
2024-01-29T16:43:17.340Z,28.4
2024-01-29T16:49:12.092Z,26.9
2024-01-29T16:55:07.783Z,25.3
2024-01-29T17:01:04.436Z,22.4
2024-01-29T17:07:00.652Z,20.1
2024-01-29T17:12:56.535Z,18.9
2024-01-29T17:18:56.862Z,18.2
2024-01-29T17:24:52.198Z,17.6
2024-01-29T17:30:46.324Z,17.3
2024-01-29T17:36:43.226Z,16.9
2024-01-29T17:42:37.527Z,16.7
2024-01-29T17:48:34.089Z,16.4
2024-01-29T17:54:32.477Z,16.3
2024-01-29T18:00:27.285Z,16.1
2024-01-29T18:06:22.785Z,15.9
2024-01-29T18:12:01.863Z,15.9
2024-01-29T18:17:43.366Z,15.8
2024-01-29T18:23:23.124Z,15.7
2024-01-29T18:29:04.717Z,15.6
2024-01-29T18:34:59.459Z,15.6
2024-01-29T18:40:53.981Z,15.5
2024-01-29T18:46:51.478Z,15.4
2024-01-29T18:52:46.610Z,15.4
2024-01-29T18:58:41.036Z,15.4
2024-01-29T19:04:40.405Z,15.3
2024-01-29T19:10:38.168Z,15.3
2024-01-29T19:16:36.834Z,15.3
2024-01-29T19:22:16.951Z,15.1
2024-01-29T19:27:55.314Z,14.9
2024-01-29T19:33:35.018Z,14.8
2024-01-29T19:39:31.238Z,14.8
2024-01-29T19:45:25.431Z,14.7
2024-01-29T19:51:23.308Z,14.7
2024-01-29T19:57:17.770Z,14.6
2024-01-29T20:03:13.303Z,14.6
2024-01-29T20:09:08.829Z,14.6
2024-01-29T20:15:05.218Z,14.6
2024-01-29T20:21:01.501Z,14.6
2024-01-29T20:26:55.729Z,14.6
2024-01-29T20:32:51.898Z,14.6
2024-01-29T20:38:49.018Z,14.6
2024-01-29T20:45:02.144Z,14.6
2024-01-29T20:50:43.823Z,14.6
2024-01-29T20:56:50.287Z,14.6
2024-01-29T21:02:45.385Z,14.6
2024-01-29T21:08:42.093Z,14.6
2024-01-29T21:14:23.890Z,14.6
2024-01-29T21:20:19.063Z,14.6
2024-01-29T21:26:13.898Z,14.6
2024-01-29T21:32:09.874Z,14.6
2024-01-29T21:38:05.234Z,14.6
2024-01-29T21:43:43.885Z,14.6
2024-01-29T21:49:39.276Z,14.6
2024-01-29T21:55:33.672Z,14.6
2024-01-29T22:01:28.701Z,14.6
2024-01-29T22:07:10.670Z,14.6
2024-01-29T22:12:49.861Z,14.6
2024-01-29T22:18:44.469Z,14.6
2024-01-29T22:24:24.493Z,14.6
2024-01-29T22:30:22.150Z,14.6
2024-01-29T22:36:16.862Z,14.6
2024-01-29T22:41:55.924Z,14.6
2024-01-29T22:47:50.148Z,14.6
2024-01-29T22:53:32.173Z,14.6
2024-01-29T22:59:10.748Z,14.6
2024-01-29T23:05:08.336Z,14.6
2024-01-29T23:11:03.101Z,14.6
2024-01-29T23:16:56.731Z,14.6
2024-01-29T23:22:36.759Z,14.6
2024-01-29T23:28:33.299Z,14.6
2024-01-29T23:34:28.184Z,14.6
2024-01-29T23:40:22.296Z,14.6
2024-01-29T23:46:16.001Z,14.6
2024-01-29T23:51:39.237Z,14.6
2024-01-29T23:57:18.516Z,14.6
